createdAt,value
2022-10-17T00:00:19.122Z,57.09
2022-10-17T00:00:51.231Z,57.10
2022-10-17T00:01:23.396Z,56.93
2022-10-17T00:01:58.128Z,57.15
2022-10-17T00:02:30.299Z,57.16
2022-10-17T00:03:02.412Z,57.20
2022-10-17T00:03:40.679Z,57.28
2022-10-17T00:04:12.883Z,57.35
2022-10-17T00:04:45.095Z,57.04
2022-10-17T00:05:17.483Z,57.28
2022-10-17T00:05:52.328Z,57.25
2022-10-17T00:06:24.462Z,57.40
2022-10-17T00:06:56.567Z,57.25
2022-10-17T00:07:28.952Z,57.30
2022-10-17T00:08:04.026Z,57.58
2022-10-17T00:08:36.249Z,57.39
2022-10-17T00:09:09.720Z,57.42
2022-10-17T00:09:45.859Z,57.62
2022-10-17T00:10:18.218Z,57.63
2022-10-17T00:10:57.631Z,57.45
2022-10-17T00:11:32.307Z,57.38
2022-10-17T00:12:05.220Z,57.36
2022-10-17T00:12:37.394Z,57.52
2022-10-17T00:13:13.314Z,57.66
2022-10-17T00:13:45.545Z,57.92
2022-10-17T00:14:17.791Z,57.72
2022-10-17T00:14:52.502Z,57.90
2022-10-17T00:15:24.617Z,57.82
2022-10-17T00:15:56.782Z,57.79
2022-10-17T00:16:37.009Z,57.85
2022-10-17T00:17:09.091Z,58.17
2022-10-17T00:17:42.109Z,57.90
2022-10-17T00:18:16.920Z,57.96
2022-10-17T00:18:51.655Z,58.12
2022-10-17T00:19:23.752Z,57.76
2022-10-17T00:19:55.909Z,57.80
2022-10-17T00:20:32.938Z,57.80
2022-10-17T00:21:05.382Z,57.99
2022-10-17T00:21:37.527Z,58.27
2022-10-17T00:22:12.221Z,57.98
2022-10-17T00:22:44.356Z,58.14
2022-10-17T00:23:16.522Z,58.38
2022-10-17T00:23:51.805Z,58.41
2022-10-17T00:24:23.913Z,58.41
2022-10-17T00:24:56.092Z,58.15
2022-10-17T00:25:30.820Z,58.08
2022-10-17T00:26:05.559Z,58.08
2022-10-17T00:26:37.779Z,57.95
2022-10-17T00:27:12.837Z,58.16
2022-10-17T00:27:45.291Z,58.17
2022-10-17T00:28:19.147Z,58.24
2022-10-17T00:28:55.403Z,58.21
2022-10-17T00:29:27.559Z,58.52
2022-10-17T00:29:59.976Z,58.39
2022-10-17T00:30:34.655Z,58.36
2022-10-17T00:31:08.142Z,58.43
2022-10-17T00:31:40.503Z,58.44
2022-10-17T00:32:15.211Z,58.35
2022-10-17T00:32:47.339Z,58.43
2022-10-17T00:33:19.437Z,58.29
2022-10-17T00:33:56.718Z,58.66
2022-10-17T00:34:30.243Z,58.29
2022-10-17T00:35:02.559Z,58.17
2022-10-17T00:35:37.217Z,58.34
2022-10-17T00:36:12.809Z,58.31
2022-10-17T00:36:47.536Z,58.30
2022-10-17T00:37:19.608Z,58.61
2022-10-17T00:37:51.731Z,58.19
2022-10-17T00:38:26.386Z,58.25
2022-10-17T00:38:59.970Z,58.23
2022-10-17T00:39:32.144Z,58.08
2022-10-17T00:40:07.968Z,58.25
2022-10-17T00:40:40.066Z,58.45
2022-10-17T00:41:15.243Z,58.04
2022-10-17T00:41:52.313Z,58.16
2022-10-17T00:42:26.060Z,58.09
2022-10-17T00:42:58.409Z,57.96
2022-10-17T00:43:34.556Z,58.12
2022-10-17T00:44:08.390Z,57.88
2022-10-17T00:45:03.114Z,58.16
2022-10-17T00:45:37.849Z,58.37
2022-10-17T00:46:09.951Z,58.37
2022-10-17T00:46:42.048Z,58.01
2022-10-17T00:47:18.617Z,58.18
2022-10-17T00:47:58.641Z,58.18
2022-10-17T00:48:30.737Z,58.41
2022-10-17T00:49:08.612Z,58.42
2022-10-17T00:49:43.843Z,58.20
2022-10-17T00:50:16.794Z,58.51
2022-10-17T00:50:50.321Z,58.46
2022-10-17T00:51:33.041Z,58.52
2022-10-17T00:52:08.545Z,58.34
2022-10-17T00:52:41.723Z,58.52
2022-10-17T00:53:16.881Z,58.05
2022-10-17T00:53:51.887Z,58.07
2022-10-17T00:54:28.736Z,58.35
2022-10-17T00:55:11.837Z,58.29
2022-10-17T00:55:49.792Z,58.30
2022-10-17T00:56:22.066Z,58.23
2022-10-17T00:56:58.017Z,58.59
2022-10-17T00:57:32.868Z,58.43
2022-10-17T00:58:06.779Z,58.43
2022-10-17T00:58:41.697Z,58.53
2022-10-17T00:59:16.721Z,58.37
2022-10-17T00:59:52.984Z,58.46
2022-10-17T01:00:27.819Z,58.43
2022-10-17T01:01:00.675Z,58.36
2022-10-17T01:01:33.001Z,58.28
2022-10-17T01:02:07.942Z,58.33
2022-10-17T01:02:42.695Z,58.41
2022-10-17T01:03:14.951Z,58.42
2022-10-17T01:03:47.354Z,58.47
2022-10-17T01:04:24.642Z,58.17
2022-10-17T01:04:59.670Z,58.44
2022-10-17T01:05:31.826Z,58.11
2022-10-17T01:06:06.796Z,58.42
2022-10-17T01:06:38.907Z,58.46
2022-10-17T01:07:11.691Z,58.71
2022-10-17T01:07:48.162Z,58.72
2022-10-17T01:08:21.253Z,58.59
2022-10-17T01:08:56.073Z,58.56
2022-10-17T01:09:28.304Z,58.22
2022-10-17T01:10:00.703Z,58.68
2022-10-17T01:10:42.537Z,58.41
2022-10-17T01:11:27.711Z,58.77
2022-10-17T01:12:07.694Z,58.70
2022-10-17T01:12:53.435Z,58.72
2022-10-17T01:13:32.188Z,58.45
2022-10-17T01:14:10.302Z,58.74
2022-10-17T01:14:56.534Z,58.56
2022-10-17T01:15:39.856Z,58.43
2022-10-17T01:16:19.328Z,58.83
2022-10-17T01:17:00.723Z,58.60
2022-10-17T01:17:39.404Z,58.87
2022-10-17T01:18:24.487Z,59.15
2022-10-17T01:19:04.812Z,58.56
2022-10-17T01:19:52.457Z,58.62
2022-10-17T01:21:02.740Z,58.67
2022-10-17T01:21:54.262Z,59.09
2022-10-17T01:22:35.352Z,59.20
2022-10-17T01:23:27.110Z,59.15
2022-10-17T01:24:51.911Z,59.20
2022-10-17T01:25:30.257Z,59.16
2022-10-17T01:26:09.806Z,58.91
2022-10-17T01:27:02.058Z,58.84
2022-10-17T01:27:57.139Z,58.79
2022-10-17T01:28:59.431Z,59.02
2022-10-17T01:29:45.974Z,59.00
2022-10-17T01:30:55.032Z,58.90
2022-10-17T01:31:34.311Z,59.20
2022-10-17T01:32:14.223Z,58.95
2022-10-17T01:32:53.657Z,58.91
2022-10-17T01:33:34.714Z,58.83
2022-10-17T01:34:17.467Z,58.91
2022-10-17T01:34:58.322Z,59.03
2022-10-17T01:35:38.096Z,58.73
2022-10-17T01:36:18.233Z,59.01
2022-10-17T01:36:56.972Z,58.72
2022-10-17T01:37:35.966Z,59.07
2022-10-17T01:38:13.979Z,58.88
2022-10-17T01:38:52.160Z,58.98
2022-10-17T01:39:38.699Z,58.95
2022-10-17T01:40:17.882Z,59.10
2022-10-17T01:40:54.070Z,59.24
2022-10-17T01:41:40.300Z,59.01
2022-10-17T01:42:17.458Z,59.06
2022-10-17T01:42:57.229Z,59.26
2022-10-17T01:43:39.699Z,58.93
2022-10-17T01:44:15.579Z,59.36
2022-10-17T01:44:56.204Z,59.23
2022-10-17T01:45:34.121Z,59.14
2022-10-17T01:46:13.199Z,59.34
2022-10-17T01:46:53.197Z,59.25
2022-10-17T01:47:29.372Z,59.34
2022-10-17T01:48:07.494Z,59.28
2022-10-17T01:48:46.051Z,59.56
2022-10-17T01:49:22.933Z,59.28
2022-10-17T01:49:59.625Z,59.07
2022-10-17T01:50:39.046Z,59.05
2022-10-17T01:51:17.018Z,59.50
2022-10-17T01:51:54.975Z,59.65
2022-10-17T01:52:35.062Z,59.20
2022-10-17T01:53:12.674Z,59.38
2022-10-17T01:53:53.282Z,59.21
2022-10-17T01:54:33.647Z,59.43
2022-10-17T01:55:08.409Z,59.67
2022-10-17T01:55:44.532Z,59.30
2022-10-17T01:56:21.263Z,59.39
2022-10-17T01:56:58.513Z,59.67
2022-10-17T01:57:36.145Z,59.39
2022-10-17T01:58:15.753Z,59.49
2022-10-17T01:58:50.598Z,59.73
2022-10-17T01:59:27.302Z,59.63
2022-10-17T02:00:03.673Z,59.87
2022-10-17T02:00:46.992Z,59.43
2022-10-17T02:01:21.136Z,59.34
2022-10-17T02:02:00.935Z,59.96
2022-10-17T02:02:35.029Z,59.52
2022-10-17T02:03:10.968Z,59.56
2022-10-17T02:03:48.039Z,59.71
2022-10-17T02:04:21.203Z,59.54
2022-10-17T02:04:55.637Z,59.50
2022-10-17T02:05:35.204Z,59.66
2022-10-17T02:06:07.412Z,59.77
2022-10-17T02:06:40.446Z,59.95
2022-10-17T02:07:19.191Z,59.66
2022-10-17T02:07:51.945Z,59.94
2022-10-17T02:08:28.288Z,59.64
2022-10-17T02:09:04.087Z,59.99
2022-10-17T02:09:36.347Z,60.07
2022-10-17T02:10:16.360Z,59.74
2022-10-17T02:10:57.033Z,59.77
2022-10-17T02:11:29.258Z,59.77
2022-10-17T02:12:27.759Z,59.97
2022-10-17T02:13:09.457Z,60.10
2022-10-17T02:13:52.666Z,59.87
2022-10-17T02:14:37.424Z,60.02
2022-10-17T02:15:31.320Z,60.26
2022-10-17T02:16:16.693Z,60.04
2022-10-17T02:16:58.997Z,60.17
2022-10-17T02:17:45.169Z,60.16
2022-10-17T02:18:30.599Z,60.00
2022-10-17T02:19:27.575Z,60.16
2022-10-17T02:20:09.614Z,59.88
2022-10-17T02:20:53.411Z,60.06
2022-10-17T02:21:34.949Z,59.97
2022-10-17T02:22:25.241Z,60.05
2022-10-17T02:23:05.651Z,60.13
2022-10-17T02:23:40.830Z,60.20
2022-10-17T02:24:20.736Z,60.18
2022-10-17T02:25:01.962Z,60.45
2022-10-17T02:25:42.236Z,59.97
2022-10-17T02:26:21.107Z,60.36
2022-10-17T02:26:59.507Z,60.32
2022-10-17T02:27:43.835Z,60.34
2022-10-17T02:28:24.014Z,60.29
2022-10-17T02:29:06.522Z,60.12
2022-10-17T02:29:48.046Z,59.98
2022-10-17T02:30:32.498Z,60.04
2022-10-17T02:31:09.193Z,60.23
2022-10-17T02:31:46.790Z,59.92
2022-10-17T02:32:27.652Z,60.01
2022-10-17T02:33:07.766Z,60.21
2022-10-17T02:33:47.209Z,60.20
2022-10-17T02:34:26.582Z,59.85
2022-10-17T02:35:02.521Z,59.96
2022-10-17T02:35:40.411Z,60.28
2022-10-17T02:36:20.039Z,60.23
2022-10-17T02:36:54.154Z,59.86
2022-10-17T02:37:30.933Z,59.99
2022-10-17T02:38:07.944Z,60.08
2022-10-17T02:38:42.423Z,59.93
2022-10-17T02:39:17.020Z,60.18
2022-10-17T02:39:53.843Z,59.98
2022-10-17T02:40:29.412Z,59.89
2022-10-17T02:41:03.943Z,60.27
2022-10-17T02:41:39.967Z,60.24
2022-10-17T02:42:14.366Z,59.78
2022-10-17T02:42:46.986Z,59.97
2022-10-17T02:43:23.250Z,59.81
2022-10-17T02:44:00.201Z,59.94
2022-10-17T02:44:35.547Z,60.13
2022-10-17T02:45:11.802Z,60.15
2022-10-17T02:45:44.142Z,60.15
2022-10-17T02:46:21.359Z,59.67
2022-10-17T02:47:02.198Z,60.15
2022-10-17T02:47:40.874Z,60.07
2022-10-17T02:48:23.022Z,59.91
2022-10-17T02:49:04.108Z,59.83
2022-10-17T02:49:40.934Z,60.14
2022-10-17T02:50:13.106Z,60.09
2022-10-17T02:50:59.618Z,59.93
2022-10-17T02:51:42.447Z,60.05
2022-10-17T02:52:20.638Z,59.99
2022-10-17T02:52:57.427Z,59.85
2022-10-17T02:53:37.373Z,59.89
2022-10-17T02:54:20.115Z,60.31
2022-10-17T02:54:58.389Z,59.95
2022-10-17T02:55:33.570Z,60.07
2022-10-17T02:56:17.234Z,59.95
2022-10-17T02:56:55.038Z,59.95
2022-10-17T02:57:31.286Z,59.81
2022-10-17T02:58:10.058Z,60.03
2022-10-17T02:58:46.436Z,59.76
2022-10-17T02:59:21.981Z,59.71
2022-10-17T02:59:58.250Z,59.92
2022-10-17T03:00:32.997Z,59.90
2022-10-17T03:01:06.226Z,59.90
2022-10-17T03:01:41.240Z,60.23
2022-10-17T03:02:13.399Z,60.07
2022-10-17T03:02:48.438Z,60.17
2022-10-17T03:03:28.374Z,60.30
2022-10-17T03:04:06.387Z,59.82
2022-10-17T03:04:38.513Z,60.29
2022-10-17T03:05:15.382Z,59.81
2022-10-17T03:05:47.501Z,60.02
2022-10-17T03:06:19.622Z,59.82
2022-10-17T03:06:54.345Z,59.87
2022-10-17T03:07:26.441Z,60.14
2022-10-17T03:07:58.524Z,59.77
2022-10-17T03:08:33.268Z,59.95
2022-10-17T03:09:06.741Z,59.92
2022-10-17T03:09:38.901Z,60.13
2022-10-17T03:10:13.763Z,59.86
2022-10-17T03:10:45.910Z,59.93
2022-10-17T03:11:18.541Z,59.91
2022-10-17T03:11:53.731Z,60.04
2022-10-17T03:12:25.888Z,59.65
2022-10-17T03:12:58.625Z,59.91
2022-10-17T03:13:36.237Z,59.82
2022-10-17T03:14:11.004Z,60.23
2022-10-17T03:14:45.792Z,60.01
2022-10-17T03:15:18.017Z,60.12
2022-10-17T03:15:50.298Z,59.74
2022-10-17T03:16:25.258Z,59.75
2022-10-17T03:16:57.424Z,59.96
2022-10-17T03:17:30.651Z,60.18
2022-10-17T03:18:02.861Z,59.88
2022-10-17T03:18:40.699Z,60.32
2022-10-17T03:19:13.280Z,59.81
2022-10-17T03:19:45.402Z,59.89
2022-10-17T03:20:20.306Z,60.17
2022-10-17T03:20:52.523Z,60.20
2022-10-17T03:21:25.298Z,60.23
2022-10-17T03:22:00.220Z,60.25
2022-10-17T03:22:32.723Z,59.95
2022-10-17T03:23:07.420Z,59.84
2022-10-17T03:23:42.597Z,60.26
2022-10-17T03:24:14.976Z,59.85
2022-10-17T03:24:47.045Z,59.93
2022-10-17T03:25:22.439Z,59.96
2022-10-17T03:25:54.758Z,60.04
2022-10-17T03:26:27.670Z,60.06
2022-10-17T03:27:02.369Z,59.93
2022-10-17T03:27:34.572Z,60.13
2022-10-17T03:28:07.089Z,60.43
2022-10-17T03:28:41.878Z,60.14
2022-10-17T03:29:14.166Z,60.20
2022-10-17T03:29:46.348Z,60.21
2022-10-17T03:30:23.149Z,60.37
2022-10-17T03:30:56.611Z,60.29
2022-10-17T03:31:28.732Z,60.20
2022-10-17T03:32:04.296Z,60.45
2022-10-17T03:32:36.583Z,60.28
2022-10-17T03:33:08.972Z,60.05
2022-10-17T03:33:47.005Z,60.34
2022-10-17T03:34:19.456Z,60.34
2022-10-17T03:34:54.257Z,60.45
2022-10-17T03:35:26.960Z,60.20
2022-10-17T03:35:59.176Z,60.37
2022-10-17T03:36:33.918Z,60.21
2022-10-17T03:37:07.122Z,60.32
2022-10-17T03:37:40.704Z,60.50
2022-10-17T03:38:15.579Z,60.54
2022-10-17T03:38:48.162Z,60.09
2022-10-17T03:39:22.200Z,60.55
2022-10-17T03:39:56.906Z,60.56
2022-10-17T03:40:29.216Z,60.20
2022-10-17T03:41:01.335Z,60.43
2022-10-17T03:41:36.221Z,60.68
2022-10-17T03:42:08.298Z,60.67
2022-10-17T03:42:40.613Z,60.31
2022-10-17T03:43:15.523Z,60.67
2022-10-17T03:43:47.674Z,60.42
2022-10-17T03:44:19.810Z,60.58
2022-10-17T03:44:54.531Z,60.46
2022-10-17T03:45:27.379Z,60.73
2022-10-17T03:46:01.013Z,60.50
2022-10-17T03:46:36.458Z,60.49
2022-10-17T03:47:11.912Z,60.28
2022-10-17T03:47:46.251Z,60.49
2022-10-17T03:48:21.046Z,60.76
2022-10-17T03:48:56.015Z,60.43
2022-10-17T03:49:28.170Z,60.55
2022-10-17T03:50:02.883Z,60.53
2022-10-17T03:50:37.763Z,60.31
2022-10-17T03:51:10.747Z,60.37
2022-10-17T03:51:51.355Z,60.26
2022-10-17T03:52:24.636Z,60.34
2022-10-17T03:52:56.778Z,60.73
2022-10-17T03:53:31.620Z,60.54
2022-10-17T03:54:04.140Z,60.42
2022-10-17T03:54:36.228Z,60.29
2022-10-17T03:55:11.358Z,60.22
2022-10-17T03:55:44.340Z,60.24
2022-10-17T03:56:18.007Z,60.51
2022-10-17T03:57:49.443Z,60.21
2022-10-17T03:58:24.246Z,60.58
2022-10-17T03:59:00.918Z,60.69
2022-10-17T03:59:34.825Z,60.58
2022-10-17T04:00:13.438Z,60.27
2022-10-17T04:00:58.016Z,60.36
2022-10-17T04:01:30.263Z,60.27
2022-10-17T04:02:02.509Z,60.46
2022-10-17T04:02:37.240Z,60.49
2022-10-17T04:03:12.583Z,60.47
2022-10-17T04:03:51.293Z,60.57
2022-10-17T04:04:29.138Z,60.09
2022-10-17T04:05:01.406Z,60.51
2022-10-17T04:05:33.586Z,60.00
2022-10-17T04:06:06.884Z,60.07
2022-10-17T04:06:43.567Z,60.17
2022-10-17T04:07:16.349Z,59.94
2022-10-17T04:07:50.842Z,60.43
2022-10-17T04:08:31.301Z,60.27
2022-10-17T04:09:17.285Z,60.34
2022-10-17T04:10:00.764Z,60.15
2022-10-17T04:10:32.848Z,60.36
2022-10-17T04:11:07.130Z,60.17
2022-10-17T04:11:41.967Z,60.28
2022-10-17T04:12:14.115Z,60.11
2022-10-17T04:12:46.225Z,60.46
2022-10-17T04:13:20.957Z,60.54
2022-10-17T04:13:54.530Z,60.19
2022-10-17T04:14:26.926Z,60.25
2022-10-17T04:15:01.926Z,60.25
2022-10-17T04:15:34.371Z,60.17
2022-10-17T04:16:10.578Z,60.38
2022-10-17T04:16:49.845Z,60.59
2022-10-17T04:17:25.510Z,60.57
2022-10-17T04:18:01.022Z,60.54
2022-10-17T04:18:33.606Z,60.56
2022-10-17T04:19:05.716Z,60.21
2022-10-17T04:19:49.590Z,60.48
2022-10-17T04:20:23.049Z,60.78
2022-10-17T04:20:55.247Z,60.33
2022-10-17T04:21:29.393Z,60.48
2022-10-17T04:22:08.593Z,60.58
2022-10-17T04:22:44.817Z,60.59
2022-10-17T04:23:17.985Z,60.81
2022-10-17T04:23:56.591Z,60.99
2022-10-17T04:24:44.896Z,60.65
2022-10-17T04:25:34.671Z,60.81
2022-10-17T04:26:08.819Z,60.97
2022-10-17T04:26:40.930Z,60.93
2022-10-17T04:27:15.726Z,61.10
2022-10-17T04:27:50.785Z,60.84
2022-10-17T04:28:23.137Z,60.47
2022-10-17T04:28:57.911Z,60.52
2022-10-17T04:29:30.030Z,60.92
2022-10-17T04:30:14.194Z,61.05
2022-10-17T04:30:48.971Z,60.75
2022-10-17T04:31:22.246Z,60.85
2022-10-17T04:32:15.337Z,60.61
2022-10-17T04:33:10.574Z,60.92
2022-10-17T04:33:45.484Z,60.60
2022-10-17T04:34:17.747Z,61.13
2022-10-17T04:34:52.530Z,60.90
2022-10-17T04:35:29.690Z,60.90
2022-10-17T04:36:08.359Z,60.87
2022-10-17T04:36:41.316Z,60.81
2022-10-17T04:37:16.325Z,60.82
2022-10-17T04:37:50.446Z,60.79
2022-10-17T04:38:27.740Z,60.60
2022-10-17T04:39:06.026Z,61.07
2022-10-17T04:39:38.243Z,60.90
2022-10-17T04:40:11.594Z,60.98
2022-10-17T04:40:46.477Z,61.17
2022-10-17T04:41:19.594Z,60.90
2022-10-17T04:41:51.794Z,60.73
2022-10-17T04:42:26.676Z,60.75
2022-10-17T04:42:59.634Z,60.75
2022-10-17T04:43:40.133Z,60.71
2022-10-17T04:44:15.331Z,60.79
2022-10-17T04:44:53.226Z,60.79
2022-10-17T04:45:25.403Z,60.47
2022-10-17T04:46:05.766Z,60.76
2022-10-17T04:46:40.487Z,60.75
2022-10-17T04:47:12.671Z,60.64
2022-10-17T04:47:44.791Z,60.57
2022-10-17T04:48:19.617Z,60.69
2022-10-17T04:48:51.730Z,60.56
2022-10-17T04:49:23.875Z,60.82
2022-10-17T04:50:04.167Z,60.69
2022-10-17T04:50:38.610Z,60.53
2022-10-17T04:51:28.093Z,60.58
2022-10-17T04:52:23.409Z,60.85
2022-10-17T04:52:58.366Z,60.83
2022-10-17T04:53:31.990Z,60.48
2022-10-17T04:54:07.002Z,60.76
2022-10-17T04:54:40.020Z,60.51
2022-10-17T04:55:17.356Z,60.51
2022-10-17T04:55:49.543Z,60.49
2022-10-17T04:56:24.745Z,60.79
2022-10-17T04:56:59.423Z,60.86
2022-10-17T04:57:35.010Z,60.59
2022-10-17T04:58:16.827Z,60.79
2022-10-17T04:58:49.522Z,60.95
2022-10-17T04:59:21.712Z,60.67
2022-10-17T05:00:02.354Z,60.67
2022-10-17T05:00:54.645Z,61.09
2022-10-17T05:01:33.603Z,60.92
2022-10-17T05:02:05.902Z,60.77
2022-10-17T05:02:39.282Z,61.03
2022-10-17T05:03:14.380Z,60.78
2022-10-17T05:03:47.143Z,60.75
2022-10-17T05:04:22.365Z,60.49
2022-10-17T05:04:59.485Z,60.66
2022-10-17T05:05:34.235Z,60.82
2022-10-17T05:06:12.407Z,60.72
2022-10-17T05:06:44.817Z,60.86
2022-10-17T05:07:48.498Z,61.01
2022-10-17T05:08:25.498Z,60.56
2022-10-17T05:08:58.347Z,60.63
2022-10-17T05:09:31.255Z,61.08
2022-10-17T05:10:06.378Z,60.72
2022-10-17T05:10:39.971Z,61.15
2022-10-17T05:11:18.080Z,60.63
2022-10-17T05:11:53.066Z,60.87
2022-10-17T05:12:25.350Z,60.71
2022-10-17T05:12:58.852Z,61.02
2022-10-17T05:13:37.540Z,61.07
2022-10-17T05:14:10.346Z,61.06
2022-10-17T05:14:43.158Z,60.96
2022-10-17T05:15:18.066Z,60.75
2022-10-17T05:15:50.524Z,60.55
2022-10-17T05:16:23.883Z,61.07
2022-10-17T05:16:58.850Z,60.67
2022-10-17T05:17:31.180Z,61.07
2022-10-17T05:18:03.829Z,60.98
2022-10-17T05:18:38.559Z,60.97
2022-10-17T05:19:12.140Z,60.96
2022-10-17T05:19:49.895Z,60.83
2022-10-17T05:20:25.887Z,60.96
2022-10-17T05:21:00.770Z,60.90
2022-10-17T05:21:37.493Z,60.81
2022-10-17T05:22:10.416Z,60.72
2022-10-17T05:22:42.574Z,60.86
2022-10-17T05:23:19.079Z,60.85
2022-10-17T05:23:51.568Z,60.75
2022-10-17T05:24:23.681Z,60.77
2022-10-17T05:24:58.397Z,60.80
2022-10-17T05:25:30.548Z,60.52
2022-10-17T05:26:02.768Z,60.86
2022-10-17T05:26:37.851Z,61.04
2022-10-17T05:27:10.063Z,60.89
2022-10-17T05:27:42.641Z,60.80
2022-10-17T05:28:17.823Z,60.94
2022-10-17T05:28:52.595Z,60.84
2022-10-17T05:29:30.083Z,60.78
2022-10-17T05:30:10.985Z,60.61
2022-10-17T05:30:44.373Z,60.68
2022-10-17T05:31:19.104Z,61.03
2022-10-17T05:31:51.376Z,60.77
2022-10-17T05:32:24.535Z,60.61
2022-10-17T05:32:59.246Z,60.85
2022-10-17T05:33:31.398Z,60.59
2022-10-17T05:34:03.802Z,60.76
2022-10-17T05:34:40.909Z,60.39
2022-10-17T05:35:13.014Z,60.44
2022-10-17T05:35:45.102Z,60.43
2022-10-17T05:36:22.421Z,60.22
2022-10-17T05:36:54.513Z,60.34
2022-10-17T05:37:30.114Z,60.23
2022-10-17T05:38:05.011Z,60.22
2022-10-17T05:38:39.363Z,60.30
2022-10-17T05:39:13.554Z,60.53
2022-10-17T05:39:51.402Z,61.01
2022-10-17T05:40:24.243Z,61.25
2022-10-17T05:41:01.557Z,61.15
2022-10-17T05:41:33.721Z,61.41
2022-10-17T05:42:05.880Z,60.92
2022-10-17T05:42:41.474Z,60.80
2022-10-17T05:43:14.955Z,60.92
2022-10-17T05:43:50.885Z,60.76
2022-10-17T05:44:26.841Z,61.09
2022-10-17T05:45:02.005Z,60.94
2022-10-17T05:45:38.949Z,61.04
2022-10-17T05:46:13.966Z,61.24
2022-10-17T05:46:48.940Z,61.12
2022-10-17T05:47:23.803Z,60.60
2022-10-17T05:47:55.897Z,60.82
2022-10-17T05:48:28.201Z,60.87
2022-10-17T05:49:14.666Z,60.70
2022-10-17T05:49:55.500Z,60.61
2022-10-17T05:50:42.740Z,60.65
2022-10-17T05:51:22.564Z,60.45
2022-10-17T05:51:54.744Z,60.34
2022-10-17T05:52:29.654Z,60.41
2022-10-17T05:53:10.571Z,60.55
2022-10-17T05:53:52.416Z,60.22
2022-10-17T05:54:29.387Z,60.33
2022-10-17T05:55:01.543Z,60.35
2022-10-17T05:55:36.339Z,59.96
2022-10-17T05:56:10.570Z,60.02
2022-10-17T05:56:42.766Z,60.09
2022-10-17T05:57:17.572Z,60.20
2022-10-17T05:57:50.047Z,60.33
2022-10-17T05:58:45.389Z,59.95
2022-10-17T05:59:28.919Z,60.11
2022-10-17T06:00:10.502Z,60.33
2022-10-17T06:00:49.794Z,60.28
2022-10-17T06:01:21.953Z,60.20
2022-10-17T06:01:57.486Z,60.19
2022-10-17T06:02:30.000Z,60.25
2022-10-17T06:03:02.192Z,59.79
2022-10-17T06:03:37.365Z,60.02
2022-10-17T06:04:11.036Z,60.07
2022-10-17T06:04:46.108Z,60.33
2022-10-17T06:05:22.274Z,60.23
2022-10-17T06:05:55.442Z,60.11
2022-10-17T06:06:30.371Z,60.02
2022-10-17T06:07:05.137Z,60.02
2022-10-17T06:07:38.686Z,59.93
2022-10-17T06:08:11.711Z,59.95
2022-10-17T06:08:46.912Z,59.93
2022-10-17T06:09:24.597Z,59.88
2022-10-17T06:09:59.237Z,59.89
2022-10-17T06:10:33.982Z,59.86
2022-10-17T06:11:09.880Z,59.68
2022-10-17T06:11:42.778Z,59.56
2022-10-17T06:12:18.795Z,60.00
2022-10-17T06:12:51.746Z,59.54
2022-10-17T06:13:24.422Z,59.84
2022-10-17T06:14:00.255Z,59.61
2022-10-17T06:14:34.240Z,59.68
2022-10-17T06:15:09.433Z,59.58
2022-10-17T06:15:45.271Z,59.51
2022-10-17T06:16:17.441Z,59.92
2022-10-17T06:16:52.818Z,59.77
2022-10-17T06:17:25.150Z,59.41
2022-10-17T06:17:59.863Z,59.70
2022-10-17T06:18:32.144Z,59.64
2022-10-17T06:19:04.294Z,59.69
2022-10-17T06:19:41.365Z,59.64
2022-10-17T06:20:13.506Z,59.67
2022-10-17T06:20:48.234Z,59.80
2022-10-17T06:21:24.701Z,59.47
2022-10-17T06:22:04.304Z,59.59
2022-10-17T06:22:37.455Z,59.73
2022-10-17T06:23:13.803Z,59.75
2022-10-17T06:24:08.929Z,59.67
2022-10-17T06:24:42.804Z,59.47
2022-10-17T06:25:15.198Z,59.92
2022-10-17T06:25:49.985Z,59.61
2022-10-17T06:26:22.504Z,59.65
2022-10-17T06:26:54.703Z,59.70
2022-10-17T06:27:29.903Z,59.53
2022-10-17T06:28:02.206Z,59.68
2022-10-17T06:28:35.392Z,59.49
2022-10-17T06:29:10.219Z,59.61
2022-10-17T06:29:48.694Z,59.55
2022-10-17T06:30:24.578Z,59.58
2022-10-17T06:30:56.741Z,59.42
2022-10-17T06:31:29.006Z,59.43
2022-10-17T06:32:04.072Z,59.51
2022-10-17T06:32:37.470Z,59.75
2022-10-17T06:33:10.707Z,59.54
2022-10-17T06:33:45.549Z,59.44
2022-10-17T06:34:18.767Z,59.64
2022-10-17T06:34:51.297Z,59.75
2022-10-17T06:35:26.476Z,59.66
2022-10-17T06:35:58.708Z,59.71
2022-10-17T06:36:31.603Z,59.21
2022-10-17T06:37:09.118Z,59.56
2022-10-17T06:37:42.511Z,59.32
2022-10-17T06:38:17.470Z,59.36
2022-10-17T06:38:49.719Z,59.41
2022-10-17T06:39:42.056Z,59.21
2022-10-17T06:40:18.264Z,59.34
2022-10-17T06:40:51.045Z,59.26
2022-10-17T06:41:25.850Z,59.27
2022-10-17T06:41:59.741Z,59.21
2022-10-17T06:42:51.708Z,59.21
2022-10-17T06:43:50.161Z,59.33
2022-10-17T06:44:49.758Z,59.25
2022-10-17T06:45:28.533Z,59.74
2022-10-17T06:46:25.588Z,59.51
2022-10-17T06:47:04.025Z,59.15
2022-10-17T06:47:40.709Z,59.12
2022-10-17T06:48:30.502Z,58.95
2022-10-17T06:49:23.871Z,59.30
2022-10-17T06:50:00.570Z,59.31
2022-10-17T06:50:44.202Z,59.11
2022-10-17T06:51:37.612Z,59.17
2022-10-17T06:52:17.763Z,59.26
2022-10-17T06:53:19.187Z,58.82
2022-10-17T06:53:56.573Z,59.18
2022-10-17T06:54:36.898Z,58.96
2022-10-17T06:55:29.784Z,59.12
2022-10-17T06:56:19.520Z,59.35
2022-10-17T06:57:27.003Z,58.88
2022-10-17T06:58:25.234Z,58.99
2022-10-17T06:59:18.492Z,58.78
2022-10-17T06:59:58.025Z,59.06
2022-10-17T07:00:36.648Z,58.67
2022-10-17T07:01:15.027Z,58.78
2022-10-17T07:01:48.552Z,59.07
2022-10-17T07:02:24.313Z,58.62
2022-10-17T07:02:57.876Z,58.51
2022-10-17T07:03:30.874Z,58.52
2022-10-17T07:04:06.454Z,58.62
2022-10-17T07:04:39.827Z,58.84
2022-10-17T07:05:12.246Z,58.50
2022-10-17T07:05:54.687Z,58.48
2022-10-17T07:06:28.097Z,58.30
2022-10-17T07:07:05.114Z,58.66
2022-10-17T07:07:44.234Z,58.59
2022-10-17T07:08:17.752Z,58.27
2022-10-17T07:08:52.554Z,58.44
2022-10-17T07:09:25.166Z,58.62
2022-10-17T07:09:59.965Z,58.17
2022-10-17T07:10:38.200Z,58.00
2022-10-17T07:11:13.798Z,58.19
2022-10-17T07:11:48.738Z,57.89
2022-10-17T07:12:24.369Z,57.78
2022-10-17T07:12:59.159Z,58.06
2022-10-17T07:13:34.413Z,57.90
2022-10-17T07:14:11.537Z,57.56
2022-10-17T07:14:43.691Z,57.52
2022-10-17T07:15:18.653Z,57.77
2022-10-17T07:15:50.850Z,57.65
2022-10-17T07:16:23.325Z,57.39
2022-10-17T07:17:06.546Z,57.64
2022-10-17T07:17:38.678Z,57.46
2022-10-17T07:18:10.927Z,57.25
2022-10-17T07:18:49.091Z,57.65
2022-10-17T07:19:22.131Z,57.44
2022-10-17T07:19:57.839Z,57.50
2022-10-17T07:20:30.615Z,57.42
2022-10-17T07:21:04.148Z,57.27
2022-10-17T07:21:39.464Z,57.40
2022-10-17T07:22:13.329Z,57.05
2022-10-17T07:22:53.932Z,57.20
2022-10-17T07:23:26.371Z,56.98
2022-10-17T07:23:58.991Z,57.27
2022-10-17T07:24:33.720Z,56.96
2022-10-17T07:25:14.851Z,57.24
2022-10-17T07:25:55.453Z,57.15
2022-10-17T07:26:27.640Z,56.84
2022-10-17T07:26:59.740Z,56.84
2022-10-17T07:27:34.442Z,57.06
2022-10-17T07:28:07.301Z,56.88
2022-10-17T07:28:43.112Z,56.85
2022-10-17T07:29:37.214Z,56.69
2022-10-17T07:30:22.642Z,56.90
2022-10-17T07:31:09.307Z,56.77
2022-10-17T07:31:42.018Z,56.60
2022-10-17T07:32:16.732Z,56.72
2022-10-17T07:32:49.071Z,56.44
2022-10-17T07:33:23.365Z,56.63
2022-10-17T07:33:58.067Z,56.37
2022-10-17T07:34:31.537Z,56.19
2022-10-17T07:35:07.749Z,56.65
2022-10-17T07:35:41.107Z,56.44
2022-10-17T07:36:13.987Z,56.04
2022-10-17T07:36:48.877Z,56.25
2022-10-17T07:37:21.077Z,55.98
2022-10-17T07:38:01.231Z,55.97
2022-10-17T07:38:36.372Z,56.28
2022-10-17T07:39:08.547Z,56.40
2022-10-17T07:39:42.212Z,55.88
2022-10-17T07:40:17.392Z,55.95
2022-10-17T07:40:55.387Z,56.36
2022-10-17T07:41:27.995Z,56.12
2022-10-17T07:42:02.693Z,56.16
2022-10-17T07:43:34.343Z,55.90
2022-10-17T07:44:07.541Z,55.94
2022-10-17T07:44:48.229Z,55.72
2022-10-17T07:45:20.555Z,55.86
2022-10-17T07:45:53.728Z,55.61
2022-10-17T07:46:28.658Z,55.47
2022-10-17T07:47:00.826Z,55.62
2022-10-17T07:47:35.954Z,55.72
2022-10-17T07:48:09.803Z,55.46
2022-10-17T07:48:43.144Z,55.58
2022-10-17T07:49:18.225Z,55.55
2022-10-17T07:49:50.379Z,55.50
2022-10-17T07:50:22.470Z,55.50
2022-10-17T07:50:57.178Z,55.48
2022-10-17T07:51:29.882Z,55.75
2022-10-17T07:52:04.552Z,55.50
2022-10-17T07:52:36.910Z,55.39